Terminal Aerodrome Forecast
Issued by NWS Cleveland, OH

Home | Current Version | Previous Version | Graphics & Text | Print | Product List | Glossary On
Versions: 1 2 3 4 5 6 7 8 9 10 11 12 13 14 15 16 17 18 19 20 21 22 23 24
135
FTUS41 KCLE 240910 AAA
TAFCLE
TAF AMD
KCLE 240910Z 2409/2512 VRB02KT P6SM SKC
     FM241600 27008KT P6SM SCT250
     FM250100 20003KT P6SM SKC=

USA.gov is the U.S. government's official web portal to all federal, state and local government web resources and services.